createdAt,value
2018-05-17T00:01:09.390Z,14.95
2018-05-17T00:03:43.027Z,15.40
2018-05-17T00:06:16.844Z,15.15
2018-05-17T00:08:51.456Z,14.10
2018-05-17T00:11:25.207Z,13.93
2018-05-17T00:13:59.605Z,15.18
2018-05-17T00:16:34.153Z,14.75
2018-05-17T00:19:07.901Z,15.05
2018-05-17T00:21:41.605Z,15.73
2018-05-17T00:24:15.378Z,13.98
2018-05-17T00:26:49.042Z,14.10
2018-05-17T00:29:22.730Z,14.07
2018-05-17T00:31:57.338Z,14.05
2018-05-17T00:34:30.962Z,14.23
2018-05-17T00:37:04.779Z,12.37
2018-05-17T00:39:39.369Z,12.32
2018-05-17T00:42:13.125Z,13.25
2018-05-17T00:44:47.718Z,13.13
2018-05-17T00:47:21.287Z,12.32
2018-05-17T00:49:55.852Z,13.50
2018-05-17T00:52:29.651Z,12.63
2018-05-17T00:55:03.487Z,12.85
2018-05-17T00:57:37.349Z,12.50
2018-05-17T01:00:11.163Z,11.95
2018-05-17T01:02:44.997Z,12.77
2018-05-17T01:05:18.885Z,12.13
2018-05-17T01:07:52.685Z,13.50
2018-05-17T01:10:26.336Z,12.85
2018-05-17T01:13:00.908Z,13.13
2018-05-17T01:15:34.722Z,12.93
2018-05-17T01:18:08.491Z,13.15
2018-05-17T01:20:42.082Z,13.25
2018-05-17T01:23:15.725Z,13.10
2018-05-17T01:25:49.463Z,12.90
2018-05-17T01:28:23.216Z,13.70
2018-05-17T01:30:57.052Z,13.13
2018-05-17T01:33:30.854Z,13.75
2018-05-17T01:36:05.427Z,13.32
2018-05-17T01:38:39.081Z,13.73
2018-05-17T01:41:12.965Z,13.30
2018-05-17T01:43:46.754Z,14.90
2018-05-17T01:46:20.657Z,14.40
2018-05-17T01:48:54.540Z,16.90
2018-05-17T01:51:28.275Z,15.55
2018-05-17T01:54:02.157Z,16.67
2018-05-17T01:56:35.923Z,15.80
2018-05-17T01:59:09.667Z,16.62
2018-05-17T02:01:43.472Z,16.85
2018-05-17T02:04:17.331Z,19.40
2018-05-17T02:06:51.860Z,18.83
2018-05-17T02:09:25.638Z,18.27
2018-05-17T02:11:59.545Z,18.70
2018-05-17T02:14:33.271Z,20.50
2018-05-17T02:17:07.801Z,23.62
2018-05-17T02:19:41.564Z,22.73
2018-05-17T02:22:15.419Z,22.85
2018-05-17T02:24:49.924Z,23.40
2018-05-17T02:27:23.777Z,23.80
2018-05-17T02:29:57.567Z,23.83
2018-05-17T02:32:31.158Z,21.90
2018-05-17T02:35:05.688Z,25.50
2018-05-17T02:37:40.223Z,25.62
2018-05-17T02:40:13.813Z,25.88
2018-05-17T02:42:47.629Z,27.95
2018-05-17T02:45:21.444Z,28.50
2018-05-17T02:47:55.338Z,30.02
2018-05-17T02:50:29.948Z,28.45
2018-05-17T02:53:03.720Z,29.00
2018-05-17T02:55:38.282Z,28.90
2018-05-17T02:58:12.505Z,27.98
2018-05-17T03:00:46.244Z,28.23
2018-05-17T03:03:20.040Z,26.75
2018-05-17T03:05:54.633Z,26.92
2018-05-17T03:08:28.307Z,26.95
2018-05-17T03:11:02.868Z,27.80
2018-05-17T03:13:36.488Z,28.20
2018-05-17T03:16:10.403Z,26.80
2018-05-17T03:18:44.974Z,27.10
2018-05-17T03:21:18.592Z,25.27
2018-05-17T03:23:53.136Z,26.15
2018-05-17T03:26:26.992Z,28.02
2018-05-17T03:29:00.588Z,26.25
2018-05-17T03:31:34.220Z,26.12
2018-05-17T03:34:08.006Z,27.35
2018-05-17T03:36:42.470Z,25.92
2018-05-17T03:39:16.296Z,27.15
2018-05-17T03:41:50.151Z,24.95
2018-05-17T03:44:23.947Z,26.87
2018-05-17T03:46:57.583Z,25.90
2018-05-17T03:49:31.337Z,25.80
2018-05-17T03:52:05.143Z,24.12
2018-05-17T03:54:38.825Z,22.83
2018-05-17T03:57:12.708Z,23.95
2018-05-17T03:59:46.452Z,24.37
2018-05-17T04:02:32.310Z,23.15
2018-05-17T04:05:18.851Z,22.37
2018-05-17T04:07:52.613Z,24.25
2018-05-17T04:10:26.477Z,22.45
2018-05-17T04:13:00.181Z,22.52
2018-05-17T04:15:34.728Z,20.75
2018-05-17T04:18:09.376Z,22.15
2018-05-17T04:20:43.017Z,22.10
2018-05-17T04:23:16.904Z,20.67
2018-05-17T04:25:51.507Z,21.95
2018-05-17T04:28:25.324Z,20.75
2018-05-17T04:30:59.243Z,20.05
2018-05-17T04:33:33.087Z,20.17
2018-05-17T04:36:06.917Z,21.40
2018-05-17T04:38:40.731Z,20.80
2018-05-17T04:41:14.547Z,20.65
2018-05-17T04:43:48.306Z,22.08
2018-05-17T04:46:21.945Z,20.45
2018-05-17T04:48:55.606Z,19.02
2018-05-17T04:51:29.391Z,19.37
2018-05-17T04:54:03.287Z,17.10
2018-05-17T04:56:36.964Z,19.40
2018-05-17T04:59:10.852Z,19.10
2018-05-17T05:01:45.513Z,19.67
2018-05-17T05:04:23.790Z,18.45
2018-05-17T05:07:00.897Z,19.55
2018-05-17T05:09:34.521Z,21.52
2018-05-17T05:12:09.110Z,22.08
2018-05-17T05:14:42.832Z,23.92
2018-05-17T05:17:16.643Z,24.33
2018-05-17T05:19:50.496Z,26.08
2018-05-17T05:22:24.271Z,25.55
2018-05-17T05:24:58.040Z,29.40
2018-05-17T05:27:31.948Z,27.23
2018-05-17T05:30:05.641Z,28.17
2018-05-17T05:32:40.205Z,29.60
2018-05-17T05:35:14.105Z,27.70
2018-05-17T05:37:47.748Z,29.08
2018-05-17T05:40:21.637Z,26.37
2018-05-17T05:42:55.320Z,31.58
2018-05-17T05:45:29.929Z,30.58
2018-05-17T05:48:03.710Z,31.23
2018-05-17T05:50:38.215Z,30.05
2018-05-17T05:53:12.780Z,32.17
2018-05-17T05:55:46.510Z,30.65
2018-05-17T05:58:20.360Z,31.80
2018-05-17T06:00:54.144Z,31.10
2018-05-17T06:03:27.955Z,31.70
2018-05-17T06:06:01.687Z,31.60
2018-05-17T06:08:35.397Z,33.67
2018-05-17T06:11:09.209Z,31.60
2018-05-17T06:13:43.013Z,32.00
2018-05-17T06:16:16.879Z,34.60
2018-05-17T06:18:50.616Z,31.95
2018-05-17T06:21:25.174Z,33.40
2018-05-17T06:23:58.948Z,33.80
2018-05-17T06:26:32.833Z,34.17
2018-05-17T06:29:06.560Z,33.13
2018-05-17T06:31:40.469Z,32.20
2018-05-17T06:34:14.313Z,33.03
2018-05-17T06:36:48.834Z,32.90
2018-05-17T06:39:22.521Z,33.42
2018-05-17T06:41:56.380Z,32.38
2018-05-17T06:44:30.157Z,34.72
2018-05-17T06:47:04.535Z,33.38
2018-05-17T06:49:38.252Z,33.20
2018-05-17T06:52:12.083Z,31.92
2018-05-17T06:54:45.898Z,31.42
2018-05-17T06:57:19.686Z,31.40
2018-05-17T06:59:54.147Z,28.62
2018-05-17T07:02:27.819Z,28.45
2018-05-17T07:05:01.733Z,28.85
2018-05-17T07:07:35.468Z,28.73
2018-05-17T07:10:09.290Z,27.58
2018-05-17T07:12:42.930Z,26.95
2018-05-17T07:15:16.772Z,26.15
2018-05-17T07:17:50.486Z,23.70
2018-05-17T07:20:24.260Z,29.37
2018-05-17T07:22:58.191Z,27.17
2018-05-17T07:25:32.648Z,27.60
2018-05-17T07:28:06.396Z,27.00
2018-05-17T07:30:40.162Z,25.98
2018-05-17T07:33:13.921Z,26.48
2018-05-17T07:35:47.673Z,28.12
2018-05-17T07:38:21.446Z,29.67
2018-05-17T07:40:55.159Z,25.60
2018-05-17T07:43:30.632Z,25.85
2018-05-17T07:46:04.384Z,26.42
2018-05-17T07:48:38.157Z,25.05
2018-05-17T07:51:12.653Z,23.80
2018-05-17T07:53:46.308Z,23.70
2018-05-17T07:56:20.772Z,22.58
2018-05-17T07:58:55.216Z,21.80
2018-05-17T08:01:29.068Z,22.67
2018-05-17T08:04:02.664Z,19.83
2018-05-17T08:06:36.452Z,20.85
2018-05-17T08:09:10.291Z,20.00
2018-05-17T08:11:44.123Z,19.20
2018-05-17T08:14:17.941Z,20.40
2018-05-17T08:16:51.680Z,20.37
2018-05-17T08:19:25.535Z,17.90
2018-05-17T08:21:59.314Z,18.45
2018-05-17T08:24:33.170Z,20.15
2018-05-17T08:27:09.541Z,19.70
2018-05-17T08:29:43.960Z,23.33
2018-05-17T08:32:17.792Z,21.35
2018-05-17T08:34:51.630Z,23.20
2018-05-17T08:37:26.175Z,26.50
2018-05-17T08:40:00.734Z,22.58
2018-05-17T08:42:34.309Z,22.90
2018-05-17T08:45:08.170Z,24.02
2018-05-17T08:47:41.935Z,25.25
2018-05-17T08:50:15.716Z,27.35
2018-05-17T08:52:53.335Z,29.77
2018-05-17T08:55:27.020Z,28.58
2018-05-17T08:58:00.831Z,29.58
2018-05-17T09:00:34.658Z,31.20
2018-05-17T09:03:09.176Z,29.83
2018-05-17T09:05:43.719Z,28.98
2018-05-17T09:08:18.084Z,32.05
2018-05-17T09:10:51.728Z,33.08
2018-05-17T09:13:25.535Z,34.20
2018-05-17T09:15:59.390Z,32.30
2018-05-17T09:18:33.990Z,32.42
2018-05-17T09:21:07.557Z,32.47
2018-05-17T09:23:42.096Z,31.40
2018-05-17T09:26:15.817Z,36.85
2018-05-17T09:28:50.311Z,32.95
2018-05-17T09:31:23.948Z,34.50
2018-05-17T09:33:57.795Z,32.20
2018-05-17T09:36:31.516Z,32.42
2018-05-17T09:39:06.313Z,31.92
2018-05-17T09:41:40.117Z,31.62
2018-05-17T09:44:13.881Z,29.65
2018-05-17T09:46:47.642Z,30.83
2018-05-17T09:49:21.502Z,30.50
2018-05-17T09:51:55.419Z,32.33
2018-05-17T09:54:29.918Z,30.58
2018-05-17T09:57:03.529Z,33.45
2018-05-17T09:59:37.345Z,29.73
2018-05-17T10:02:11.959Z,28.85
2018-05-17T10:04:45.811Z,28.77
2018-05-17T10:07:19.596Z,29.30
2018-05-17T10:09:54.195Z,27.33
2018-05-17T10:12:27.888Z,28.50
2018-05-17T10:15:01.881Z,24.77
2018-05-17T10:17:35.480Z,26.45
2018-05-17T10:20:09.307Z,25.83
2018-05-17T10:22:42.960Z,25.83
2018-05-17T10:25:17.502Z,25.60
2018-05-17T10:27:51.379Z,27.80
2018-05-17T10:30:25.216Z,25.73
2018-05-17T10:32:58.794Z,26.12
2018-05-17T10:35:33.345Z,26.48
2018-05-17T10:38:07.052Z,26.70
2018-05-17T10:40:40.869Z,26.10
2018-05-17T10:43:15.484Z,26.12
2018-05-17T10:45:49.352Z,27.37
2018-05-17T10:48:23.143Z,26.35
2018-05-17T10:50:57.921Z,26.40
2018-05-17T10:53:31.724Z,26.55
2018-05-17T10:56:05.488Z,22.65
2018-05-17T10:58:39.299Z,25.08
2018-05-17T11:01:13.107Z,28.02
2018-05-17T11:03:46.893Z,26.50
2018-05-17T11:06:20.781Z,27.87
2018-05-17T11:08:55.756Z,26.23
2018-05-17T11:11:29.582Z,27.05
2018-05-17T11:14:03.326Z,28.70
2018-05-17T11:16:37.004Z,26.48
2018-05-17T11:19:11.600Z,24.73
2018-05-17T11:21:46.215Z,27.52
2018-05-17T11:24:19.864Z,25.83
2018-05-17T11:26:53.676Z,25.95
2018-05-17T11:29:27.449Z,24.40
2018-05-17T11:32:02.004Z,25.92
2018-05-17T11:34:36.497Z,27.23
2018-05-17T11:37:10.157Z,27.02
2018-05-17T11:39:43.883Z,23.58
2018-05-17T11:42:17.658Z,25.65
2018-05-17T11:44:51.556Z,26.60
2018-05-17T11:47:25.405Z,27.52
2018-05-17T11:49:59.217Z,25.67
2018-05-17T11:52:33.041Z,24.95
2018-05-17T11:55:06.948Z,24.98
2018-05-17T11:57:41.469Z,27.40
2018-05-17T12:00:15.078Z,25.12
2018-05-17T12:02:48.886Z,27.85
2018-05-17T12:05:22.664Z,26.02
2018-05-17T12:07:56.425Z,26.48
2018-05-17T12:10:30.137Z,24.87
2018-05-17T12:13:03.901Z,26.23
2018-05-17T12:15:37.724Z,24.73
2018-05-17T12:18:11.649Z,27.83
2018-05-17T12:20:45.444Z,25.90
2018-05-17T12:23:19.214Z,26.73
2018-05-17T12:25:53.819Z,26.08
2018-05-17T12:28:27.616Z,24.42
2018-05-17T12:31:01.468Z,24.35
2018-05-17T12:33:35.163Z,25.60
2018-05-17T12:36:08.844Z,25.48
2018-05-17T12:38:42.629Z,26.35
2018-05-17T12:41:16.667Z,25.40
2018-05-17T12:43:50.264Z,24.10
2018-05-17T12:46:24.044Z,24.35
2018-05-17T12:48:58.699Z,24.10
2018-05-17T12:51:33.190Z,24.48
2018-05-17T12:54:07.028Z,26.62
2018-05-17T12:56:41.622Z,26.90
2018-05-17T12:59:15.321Z,22.55
2018-05-17T13:01:49.117Z,29.17
2018-05-17T13:04:23.739Z,23.80
2018-05-17T13:06:57.549Z,25.80
2018-05-17T13:09:31.261Z,23.62
2018-05-17T13:12:05.160Z,23.50
2018-05-17T13:14:38.951Z,23.80
2018-05-17T13:17:13.613Z,23.02
2018-05-17T13:19:47.304Z,21.83
2018-05-17T13:22:21.186Z,21.15
2018-05-17T13:24:54.986Z,21.90
2018-05-17T13:27:28.685Z,22.08
2018-05-17T13:30:03.260Z,21.92
2018-05-17T13:32:36.980Z,21.62
2018-05-17T13:35:10.868Z,22.33
2018-05-17T13:37:44.863Z,21.52
2018-05-17T13:40:18.534Z,22.77
2018-05-17T13:42:52.352Z,20.50
2018-05-17T13:45:26.110Z,21.37
2018-05-17T13:47:59.989Z,22.65
2018-05-17T13:50:33.757Z,21.27
2018-05-17T13:53:10.016Z,19.92
2018-05-17T13:55:44.912Z,21.80
2018-05-17T13:58:18.953Z,20.60
2018-05-17T14:00:53.575Z,19.52
2018-05-17T14:03:27.339Z,21.50
2018-05-17T14:06:01.182Z,20.67
2018-05-17T14:08:34.968Z,20.65
2018-05-17T14:11:08.749Z,20.65
2018-05-17T14:13:42.492Z,20.45
2018-05-17T14:16:16.257Z,19.17
2018-05-17T14:18:50.052Z,22.35
2018-05-17T14:21:23.784Z,20.25
2018-05-17T14:23:58.395Z,18.25
2018-05-17T14:26:32.148Z,19.98
2018-05-17T14:29:05.936Z,20.67
2018-05-17T14:31:39.925Z,19.62
2018-05-17T14:34:14.437Z,18.85
2018-05-17T14:36:50.005Z,19.25
2018-05-17T14:39:24.417Z,19.60
2018-05-17T14:41:58.236Z,18.02
2018-05-17T14:44:32.812Z,18.37
2018-05-17T14:47:06.528Z,17.87
2018-05-17T14:49:40.382Z,17.52
2018-05-17T14:52:14.194Z,16.48
2018-05-17T14:54:48.708Z,16.20
2018-05-17T14:57:22.564Z,16.40
2018-05-17T14:59:56.348Z,16.12
2018-05-17T15:02:30.179Z,17.50
2018-05-17T15:05:04.055Z,16.42
2018-05-17T15:07:37.824Z,16.08
2018-05-17T15:10:11.600Z,16.17
2018-05-17T15:12:45.220Z,16.55
2018-05-17T15:15:19.041Z,16.00
2018-05-17T15:17:52.800Z,16.75
2018-05-17T15:20:26.690Z,16.35
2018-05-17T15:23:00.491Z,15.30
2018-05-17T15:25:35.073Z,15.82
2018-05-17T15:28:08.677Z,14.68
2018-05-17T15:30:42.495Z,15.52
2018-05-17T15:33:16.349Z,15.27
2018-05-17T15:35:50.090Z,16.17
2018-05-17T15:38:23.905Z,18.60
2018-05-17T15:40:58.427Z,15.20
2018-05-17T15:43:33.056Z,14.45
2018-05-17T15:46:06.721Z,14.60
2018-05-17T15:48:40.567Z,13.95
2018-05-17T15:51:14.366Z,12.93
2018-05-17T15:53:48.170Z,13.05
2018-05-17T15:56:21.770Z,13.25
2018-05-17T15:58:56.401Z,13.35
2018-05-17T16:01:31.201Z,11.23
2018-05-17T16:04:04.955Z,12.10
2018-05-17T16:06:38.724Z,17.37
2018-05-17T16:09:12.557Z,27.90
2018-05-17T16:11:46.246Z,10.27
2018-05-17T16:14:20.040Z,10.35
2018-05-17T16:16:53.873Z,9.60
2018-05-17T16:19:27.648Z,8.70
2018-05-17T16:22:01.828Z,8.65
2018-05-17T16:24:35.665Z,8.70
2018-05-17T16:27:10.282Z,9.25
2018-05-17T16:29:44.105Z,8.45
2018-05-17T16:32:17.968Z,8.30
2018-05-17T16:34:52.428Z,8.90
2018-05-17T16:37:26.176Z,9.52
2018-05-17T16:39:59.932Z,8.15
2018-05-17T16:42:33.711Z,8.57
2018-05-17T16:45:07.409Z,9.38
2018-05-17T16:47:41.286Z,9.05
2018-05-17T16:50:16.340Z,8.70
2018-05-17T16:52:50.138Z,8.38
2018-05-17T16:55:24.346Z,8.10
2018-05-17T16:57:58.181Z,8.00
2018-05-17T17:00:32.129Z,8.30
2018-05-17T17:03:05.954Z,9.15
2018-05-17T17:05:39.888Z,8.57
2018-05-17T17:08:13.612Z,8.50
2018-05-17T17:10:48.103Z,11.88
2018-05-17T17:13:21.792Z,9.70
2018-05-17T17:15:55.626Z,9.10
2018-05-17T17:18:30.104Z,8.50
2018-05-17T17:21:03.910Z,9.20
2018-05-17T17:23:38.016Z,9.38
2018-05-17T17:26:11.833Z,8.35
2018-05-17T17:28:46.372Z,10.07
2018-05-17T17:31:20.914Z,9.07
2018-05-17T17:33:54.588Z,10.85
2018-05-17T17:36:28.519Z,9.93
2018-05-17T17:39:03.116Z,13.13
2018-05-17T17:41:36.977Z,10.43
2018-05-17T17:44:10.798Z,10.65
2018-05-17T17:46:44.594Z,11.15
2018-05-17T17:49:19.176Z,12.10
2018-05-17T17:51:53.800Z,13.07
2018-05-17T17:54:28.397Z,13.18
2018-05-17T17:57:02.847Z,13.10
2018-05-17T17:59:36.469Z,12.35
2018-05-17T18:02:10.235Z,14.27
2018-05-17T18:04:44.789Z,13.50
2018-05-17T18:07:18.682Z,13.32
2018-05-17T18:09:53.185Z,13.77
2018-05-17T18:12:26.984Z,24.10
2018-05-17T18:15:01.398Z,14.35
2018-05-17T18:17:35.013Z,14.90
2018-05-17T18:20:08.812Z,13.80
2018-05-17T18:22:42.669Z,14.87
2018-05-17T18:25:16.745Z,31.40
2018-05-17T18:27:50.488Z,15.27
2018-05-17T18:30:25.040Z,15.15
2018-05-17T18:32:58.733Z,17.02
2018-05-17T18:35:33.200Z,15.30
2018-05-17T18:38:07.739Z,15.10
2018-05-17T18:40:41.461Z,15.30
2018-05-17T18:43:15.277Z,14.80
2018-05-17T18:45:49.075Z,12.50
2018-05-17T18:48:23.662Z,13.65
2018-05-17T18:50:57.435Z,14.95
2018-05-17T18:53:31.209Z,13.35
2018-05-17T18:56:05.006Z,13.30
2018-05-17T18:58:38.802Z,12.55
2018-05-17T19:01:12.618Z,14.55
2018-05-17T19:03:46.281Z,12.95
2018-05-17T19:06:20.820Z,13.20
2018-05-17T19:08:54.560Z,13.60
2018-05-17T19:11:28.312Z,13.52
2018-05-17T19:14:02.240Z,14.95
2018-05-17T19:16:36.052Z,13.93
2018-05-17T19:19:09.800Z,14.05
2018-05-17T19:21:44.391Z,15.25
2018-05-17T19:24:18.167Z,14.75
2018-05-17T19:26:52.701Z,13.77
2018-05-17T19:29:27.341Z,15.77
2018-05-17T19:32:01.095Z,15.23
2018-05-17T19:34:34.751Z,15.82
2018-05-17T19:37:08.647Z,15.70
2018-05-17T19:39:43.040Z,15.88
2018-05-17T19:42:16.764Z,17.85
2018-05-17T19:44:50.584Z,16.75
2018-05-17T19:47:24.428Z,17.85
2018-05-17T19:49:59.001Z,17.98
2018-05-17T19:52:32.745Z,21.35
2018-05-17T19:55:06.392Z,18.77
2018-05-17T19:57:40.259Z,16.73
2018-05-17T20:00:14.264Z,15.48
2018-05-17T20:02:48.135Z,15.05
2018-05-17T20:05:21.960Z,15.95
2018-05-17T20:07:55.784Z,15.43
2018-05-17T20:10:29.462Z,16.23
2018-05-17T20:13:03.287Z,18.42
2018-05-17T20:15:37.063Z,16.90
2018-05-17T20:18:10.901Z,16.23
2018-05-17T20:20:44.716Z,17.17
2018-05-17T20:23:19.311Z,17.52
2018-05-17T20:25:53.824Z,18.00
2018-05-17T20:28:27.560Z,17.33
2018-05-17T20:31:01.396Z,18.85
2018-05-17T20:33:35.198Z,19.50
2018-05-17T20:36:09.832Z,17.27
2018-05-17T20:38:43.573Z,16.85
2018-05-17T20:41:17.375Z,17.17
2018-05-17T20:43:51.004Z,17.12
2018-05-17T20:46:24.716Z,18.10
2018-05-17T20:48:58.572Z,16.45
2018-05-17T20:51:32.411Z,16.60
2018-05-17T20:54:06.183Z,17.67
2018-05-17T20:56:40.023Z,16.70
2018-05-17T20:59:13.785Z,18.80
2018-05-17T21:01:47.473Z,16.52
2018-05-17T21:04:22.025Z,19.00
2018-05-17T21:06:55.676Z,17.25
2018-05-17T21:09:29.353Z,17.83
2018-05-17T21:12:02.984Z,18.23
2018-05-17T21:14:37.664Z,18.15
2018-05-17T21:17:11.423Z,17.70
2018-05-17T21:19:45.976Z,19.25
2018-05-17T21:22:19.612Z,19.02
2018-05-17T21:24:54.243Z,18.95
2018-05-17T21:27:28.038Z,17.33
2018-05-17T21:30:01.849Z,18.40
2018-05-17T21:32:35.639Z,19.92
2018-05-17T21:35:09.478Z,18.83
2018-05-17T21:37:43.188Z,18.77
2018-05-17T21:40:17.580Z,18.35
2018-05-17T21:42:52.108Z,19.85
2018-05-17T21:45:25.949Z,19.48
2018-05-17T21:48:00.547Z,20.95
2018-05-17T21:50:34.336Z,18.48
2018-05-17T21:53:08.073Z,20.25
2018-05-17T21:55:41.676Z,20.17
2018-05-17T21:58:15.322Z,18.40
2018-05-17T22:00:49.888Z,18.77
2018-05-17T22:03:23.703Z,18.65
2018-05-17T22:05:57.305Z,20.58
2018-05-17T22:08:31.038Z,23.17
2018-05-17T22:11:05.595Z,19.62
2018-05-17T22:13:39.465Z,20.40
2018-05-17T22:16:13.314Z,21.42
2018-05-17T22:18:47.086Z,19.95
2018-05-17T22:21:20.746Z,20.37
2018-05-17T22:23:55.357Z,19.73
2018-05-17T22:26:29.901Z,22.65
2018-05-17T22:29:03.696Z,20.80
2018-05-17T22:31:37.421Z,21.80
2018-05-17T22:34:11.160Z,20.67
2018-05-17T22:36:45.796Z,22.65
2018-05-17T22:39:20.313Z,20.62
2018-05-17T22:41:54.107Z,20.65
2018-05-17T22:44:28.652Z,20.75
2018-05-17T22:47:02.396Z,23.77
2018-05-17T22:49:36.167Z,23.50
2018-05-17T22:52:09.971Z,24.00
2018-05-17T22:54:43.789Z,23.05
2018-05-17T22:57:29.536Z,20.40
2018-05-17T23:00:04.090Z,21.25
2018-05-17T23:02:38.642Z,20.42
2018-05-17T23:05:12.466Z,22.33
2018-05-17T23:07:46.336Z,20.20
2018-05-17T23:10:20.128Z,22.02
2018-05-17T23:12:54.636Z,21.80
2018-05-17T23:15:29.090Z,20.75
2018-05-17T23:18:02.936Z,18.65
2018-05-17T23:20:36.715Z,20.45
2018-05-17T23:23:10.565Z,18.98
2018-05-17T23:25:44.346Z,19.35
2018-05-17T23:28:18.949Z,19.85
2018-05-17T23:30:52.660Z,20.23
2018-05-17T23:33:26.328Z,20.55
2018-05-17T23:36:00.124Z,19.73
2018-05-17T23:38:33.795Z,18.40
2018-05-17T23:41:19.715Z,18.83
2018-05-17T23:43:53.452Z,17.67
2018-05-17T23:46:27.156Z,17.23
2018-05-17T23:49:00.964Z,17.45
2018-05-17T23:51:34.740Z,17.58
2018-05-17T23:54:09.388Z,16.58
2018-05-17T23:56:43.222Z,15.80
2018-05-17T23:59:17.032Z,15.00
